Terminal Aerodrome Forecast
Issued by NWS Kansas City/Pleasant Hill, MO

Home | Current Version | Previous Version | Text Only | Print | Product List | Glossary On
Versions: 1 2 3 4 5 6 7 8 9 10 11 12 13 14 15 16 17 18
000
FTUS43 KEAX 241100
TAFMCI
TAF
KMCI 241120Z 2412/2512 20006KT 2SM BR OVC005
      TEMPO 2412/2414 1SM BR OVC002
     FM241500 21011KT P6SM BKN015
     FM241800 22013KT P6SM SCT200
     FM250800 33005KT 4SM BR SKC=

USA.gov is the U.S. government's official web portal to all federal, state and local government web resources and services.